sensor_id;sensor_type;location;lat;lon;timestamp;P1;durP1;ratioP1;P2;durP2;ratioP2
76712;SDS011;65640;43.154;25.658;2022-12-17T00:00:27;26.48;;;14.45;;
76712;SDS011;65640;43.154;25.658;2022-12-17T00:03:11;26.90;;;11.77;;
76712;SDS011;65640;43.154;25.658;2022-12-17T00:05:55;26.00;;;13.20;;
76712;SDS011;65640;43.154;25.658;2022-12-17T00:08:39;24.80;;;12.60;;
76712;SDS011;65640;43.154;25.658;2022-12-17T00:11:23;23.85;;;12.35;;
76712;SDS011;65640;43.154;25.658;2022-12-17T00:14:07;26.52;;;12.43;;
76712;SDS011;65640;43.154;25.658;2022-12-17T00:16:51;28.42;;;14.30;;
76712;SDS011;65640;43.154;25.658;2022-12-17T00:19:35;30.98;;;13.23;;
76712;SDS011;65640;43.154;25.658;2022-12-17T00:22:19;26.02;;;11.77;;
76712;SDS011;65640;43.154;25.658;2022-12-17T00:25:03;23.50;;;11.50;;
76712;SDS011;65640;43.154;25.658;2022-12-17T00:27:47;25.85;;;10.18;;
76712;SDS011;65640;43.154;25.658;2022-12-17T00:30:31;20.23;;;9.00;;
76712;SDS011;65640;43.154;25.658;2022-12-17T00:33:15;15.18;;;7.78;;
76712;SDS011;65640;43.154;25.658;2022-12-17T00:36:04;23.45;;;9.55;;
76712;SDS011;65640;43.154;25.658;2022-12-17T00:38:48;21.02;;;10.00;;
76712;SDS011;65640;43.154;25.658;2022-12-17T00:41:32;38.47;;;11.38;;
76712;SDS011;65640;43.154;25.658;2022-12-17T00:44:16;33.25;;;9.77;;
76712;SDS011;65640;43.154;25.658;2022-12-17T00:47:00;35.45;;;13.15;;
76712;SDS011;65640;43.154;25.658;2022-12-17T00:49:44;23.67;;;10.65;;
76712;SDS011;65640;43.154;25.658;2022-12-17T00:52:28;25.23;;;11.10;;
76712;SDS011;65640;43.154;25.658;2022-12-17T00:55:11;47.95;;;13.75;;
76712;SDS011;65640;43.154;25.658;2022-12-17T00:57:56;25.83;;;12.45;;
76712;SDS011;65640;43.154;25.658;2022-12-17T01:00:40;37.38;;;13.68;;
76712;SDS011;65640;43.154;25.658;2022-12-17T01:03:25;35.53;;;12.30;;
76712;SDS011;65640;43.154;25.658;2022-12-17T01:06:10;34.05;;;10.80;;
76712;SDS011;65640;43.154;25.658;2022-12-17T01:08:54;26.33;;;12.23;;
76712;SDS011;65640;43.154;25.658;2022-12-17T01:11:38;24.02;;;11.27;;
76712;SDS011;65640;43.154;25.658;2022-12-17T01:14:23;39.45;;;11.63;;
76712;SDS011;65640;43.154;25.658;2022-12-17T01:17:07;26.83;;;10.82;;
76712;SDS011;65640;43.154;25.658;2022-12-17T01:19:51;21.35;;;10.60;;
76712;SDS011;65640;43.154;25.658;2022-12-17T01:22:35;22.92;;;11.10;;
76712;SDS011;65640;43.154;25.658;2022-12-17T01:25:19;20.02;;;10.45;;
76712;SDS011;65640;43.154;25.658;2022-12-17T01:28:03;17.58;;;9.60;;
76712;SDS011;65640;43.154;25.658;2022-12-17T01:30:47;22.15;;;9.27;;
76712;SDS011;65640;43.154;25.658;2022-12-17T01:33:31;19.58;;;9.80;;
76712;SDS011;65640;43.154;25.658;2022-12-17T01:36:15;20.08;;;10.45;;
76712;SDS011;65640;43.154;25.658;2022-12-17T01:38:59;31.20;;;12.80;;
76712;SDS011;65640;43.154;25.658;2022-12-17T01:41:43;29.92;;;15.00;;
76712;SDS011;65640;43.154;25.658;2022-12-17T01:47:27;27.38;;;10.13;;
76712;SDS011;65640;43.154;25.658;2022-12-17T01:50:14;37.47;;;10.93;;
76712;SDS011;65640;43.154;25.658;2022-12-17T01:53:00;28.85;;;10.95;;
76712;SDS011;65640;43.154;25.658;2022-12-17T01:55:46;28.33;;;10.52;;
76712;SDS011;65640;43.154;25.658;2022-12-17T01:58:32;26.98;;;11.32;;
76712;SDS011;65640;43.154;25.658;2022-12-17T02:01:17;21.77;;;9.93;;
76712;SDS011;65640;43.154;25.658;2022-12-17T02:04:01;24.15;;;12.07;;
76712;SDS011;65640;43.154;25.658;2022-12-17T02:06:53;21.13;;;10.75;;
76712;SDS011;65640;43.154;25.658;2022-12-17T02:13:12;21.75;;;11.38;;
76712;SDS011;65640;43.154;25.658;2022-12-17T02:16:13;27.77;;;12.65;;
76712;SDS011;65640;43.154;25.658;2022-12-17T02:19:02;24.17;;;11.50;;
76712;SDS011;65640;43.154;25.658;2022-12-17T02:21:57;23.45;;;11.10;;
76712;SDS011;65640;43.154;25.658;2022-12-17T02:24:54;19.98;;;10.73;;
76712;SDS011;65640;43.154;25.658;2022-12-17T02:27:44;20.88;;;10.02;;
76712;SDS011;65640;43.154;25.658;2022-12-17T02:30:29;17.52;;;9.20;;
76712;SDS011;65640;43.154;25.658;2022-12-17T02:33:13;21.27;;;10.23;;
76712;SDS011;65640;43.154;25.658;2022-12-17T02:35:59;22.33;;;11.05;;
76712;SDS011;65640;43.154;25.658;2022-12-17T02:38:47;20.15;;;10.20;;
76712;SDS011;65640;43.154;25.658;2022-12-17T02:41:33;23.25;;;11.00;;
76712;SDS011;65640;43.154;25.658;2022-12-17T02:44:22;18.92;;;11.02;;
76712;SDS011;65640;43.154;25.658;2022-12-17T02:47:08;21.23;;;10.70;;
76712;SDS011;65640;43.154;25.658;2022-12-17T02:49:54;18.25;;;10.75;;
76712;SDS011;65640;43.154;25.658;2022-12-17T02:52:39;22.58;;;10.63;;
76712;SDS011;65640;43.154;25.658;2022-12-17T02:55:27;24.50;;;13.25;;
76712;SDS011;65640;43.154;25.658;2022-12-17T02:58:10;24.85;;;11.48;;
76712;SDS011;65640;43.154;25.658;2022-12-17T03:00:54;22.42;;;11.10;;
76712;SDS011;65640;43.154;25.658;2022-12-17T03:03:38;18.10;;;9.48;;
76712;SDS011;65640;43.154;25.658;2022-12-17T03:06:22;21.83;;;10.85;;
76712;SDS011;65640;43.154;25.658;2022-12-17T03:09:06;18.25;;;10.13;;
76712;SDS011;65640;43.154;25.658;2022-12-17T03:11:50;19.15;;;10.73;;
76712;SDS011;65640;43.154;25.658;2022-12-17T03:14:34;18.30;;;11.20;;
76712;SDS011;65640;43.154;25.658;2022-12-17T03:17:18;17.90;;;10.77;;
76712;SDS011;65640;43.154;25.658;2022-12-17T03:20:02;17.63;;;10.88;;
76712;SDS011;65640;43.154;25.658;2022-12-17T03:22:46;19.13;;;10.13;;
76712;SDS011;65640;43.154;25.658;2022-12-17T03:25:32;22.30;;;11.75;;
76712;SDS011;65640;43.154;25.658;2022-12-17T03:28:16;30.38;;;13.98;;
76712;SDS011;65640;43.154;25.658;2022-12-17T03:31:00;43.05;;;14.57;;
76712;SDS011;65640;43.154;25.658;2022-12-17T03:33:44;58.28;;;13.65;;
76712;SDS011;65640;43.154;25.658;2022-12-17T03:36:28;48.92;;;13.00;;
76712;SDS011;65640;43.154;25.658;2022-12-17T03:39:12;61.40;;;12.13;;
76712;SDS011;65640;43.154;25.658;2022-12-17T03:41:56;25.67;;;11.07;;
76712;SDS011;65640;43.154;25.658;2022-12-17T03:44:40;36.67;;;10.70;;
76712;SDS011;65640;43.154;25.658;2022-12-17T03:47:24;21.75;;;9.73;;
76712;SDS011;65640;43.154;25.658;2022-12-17T03:50:08;27.27;;;9.60;;
76712;SDS011;65640;43.154;25.658;2022-12-17T03:52:53;23.17;;;9.80;;
76712;SDS011;65640;43.154;25.658;2022-12-17T03:55:36;24.42;;;9.90;;
76712;SDS011;65640;43.154;25.658;2022-12-17T03:58:20;30.55;;;11.38;;
76712;SDS011;65640;43.154;25.658;2022-12-17T04:01:04;17.95;;;10.32;;
76712;SDS011;65640;43.154;25.658;2022-12-17T04:03:48;24.20;;;10.38;;
76712;SDS011;65640;43.154;25.658;2022-12-17T04:06:32;53.80;;;11.18;;
76712;SDS011;65640;43.154;25.658;2022-12-17T04:09:16;35.67;;;10.85;;
76712;SDS011;65640;43.154;25.658;2022-12-17T04:12:00;22.70;;;11.02;;
76712;SDS011;65640;43.154;25.658;2022-12-17T04:14:44;17.30;;;10.48;;
76712;SDS011;65640;43.154;25.658;2022-12-17T04:17:28;20.17;;;12.45;;
76712;SDS011;65640;43.154;25.658;2022-12-17T04:20:12;24.35;;;10.90;;
76712;SDS011;65640;43.154;25.658;2022-12-17T04:22:56;40.05;;;11.13;;
76712;SDS011;65640;43.154;25.658;2022-12-17T04:25:40;22.52;;;11.32;;
76712;SDS011;65640;43.154;25.658;2022-12-17T04:28:24;18.27;;;10.38;;
76712;SDS011;65640;43.154;25.658;2022-12-17T04:31:08;16.42;;;10.00;;
76712;SDS011;65640;43.154;25.658;2022-12-17T04:33:52;14.35;;;9.20;;
76712;SDS011;65640;43.154;25.658;2022-12-17T04:36:36;17.63;;;9.57;;
76712;SDS011;65640;43.154;25.658;2022-12-17T04:39:19;20.23;;;9.73;;
76712;SDS011;65640;43.154;25.658;2022-12-17T04:42:03;24.20;;;10.23;;
76712;SDS011;65640;43.154;25.658;2022-12-17T04:44:47;21.00;;;9.40;;
76712;SDS011;65640;43.154;25.658;2022-12-17T04:47:31;26.10;;;9.85;;
76712;SDS011;65640;43.154;25.658;2022-12-17T04:50:15;25.48;;;11.82;;
76712;SDS011;65640;43.154;25.658;2022-12-17T04:53:00;40.95;;;13.38;;
76712;SDS011;65640;43.154;25.658;2022-12-17T04:55:45;35.08;;;12.90;;
76712;SDS011;65640;43.154;25.658;2022-12-17T04:58:29;51.67;;;10.15;;
76712;SDS011;65640;43.154;25.658;2022-12-17T05:01:13;56.95;;;10.55;;
76712;SDS011;65640;43.154;25.658;2022-12-17T05:03:57;34.38;;;11.57;;
76712;SDS011;65640;43.154;25.658;2022-12-17T05:06:41;16.90;;;10.20;;
76712;SDS011;65640;43.154;25.658;2022-12-17T05:09:25;18.65;;;10.05;;
76712;SDS011;65640;43.154;25.658;2022-12-17T05:12:09;17.45;;;10.30;;
76712;SDS011;65640;43.154;25.658;2022-12-17T05:14:53;21.67;;;11.77;;
76712;SDS011;65640;43.154;25.658;2022-12-17T05:17:37;19.50;;;11.35;;
76712;SDS011;65640;43.154;25.658;2022-12-17T05:20:21;21.45;;;10.68;;
76712;SDS011;65640;43.154;25.658;2022-12-17T05:23:05;19.48;;;10.70;;
76712;SDS011;65640;43.154;25.658;2022-12-17T05:26:36;13.18;;;9.93;;
76712;SDS011;65640;43.154;25.658;2022-12-17T05:29:02;15.95;;;10.90;;
76712;SDS011;65640;43.154;25.658;2022-12-17T05:31:47;34.72;;;18.35;;
76712;SDS011;65640;43.154;25.658;2022-12-17T05:34:32;29.63;;;15.25;;
76712;SDS011;65640;43.154;25.658;2022-12-17T05:37:16;9.93;;;8.07;;
76712;SDS011;65640;43.154;25.658;2022-12-17T05:40:00;13.13;;;8.88;;
76712;SDS011;65640;43.154;25.658;2022-12-17T05:42:57;19.73;;;13.45;;
76712;SDS011;65640;43.154;25.658;2022-12-17T05:45:42;15.73;;;10.48;;
76712;SDS011;65640;43.154;25.658;2022-12-17T05:48:27;20.90;;;16.38;;
76712;SDS011;65640;43.154;25.658;2022-12-17T05:51:11;18.50;;;11.23;;
76712;SDS011;65640;43.154;25.658;2022-12-17T05:53:55;24.20;;;13.02;;
76712;SDS011;65640;43.154;25.658;2022-12-17T05:56:39;15.68;;;10.30;;
76712;SDS011;65640;43.154;25.658;2022-12-17T05:59:23;17.58;;;11.43;;
76712;SDS011;65640;43.154;25.658;2022-12-17T06:02:07;20.10;;;12.80;;
76712;SDS011;65640;43.154;25.658;2022-12-17T06:04:51;16.23;;;10.95;;
76712;SDS011;65640;43.154;25.658;2022-12-17T06:07:35;19.73;;;10.48;;
76712;SDS011;65640;43.154;25.658;2022-12-17T06:10:19;19.75;;;11.32;;
76712;SDS011;65640;43.154;25.658;2022-12-17T06:13:03;19.40;;;10.32;;
76712;SDS011;65640;43.154;25.658;2022-12-17T06:15:47;20.25;;;12.05;;
76712;SDS011;65640;43.154;25.658;2022-12-17T06:18:32;32.80;;;15.80;;
76712;SDS011;65640;43.154;25.658;2022-12-17T06:21:17;54.65;;;21.48;;
76712;SDS011;65640;43.154;25.658;2022-12-17T06:24:01;157.63;;;47.67;;
76712;SDS011;65640;43.154;25.658;2022-12-17T06:26:45;154.55;;;57.22;;
76712;SDS011;65640;43.154;25.658;2022-12-17T06:29:29;135.45;;;45.10;;
76712;SDS011;65640;43.154;25.658;2022-12-17T06:32:12;68.65;;;24.25;;
76712;SDS011;65640;43.154;25.658;2022-12-17T06:34:56;126.15;;;42.03;;
76712;SDS011;65640;43.154;25.658;2022-12-17T06:37:40;114.78;;;27.75;;
76712;SDS011;65640;43.154;25.658;2022-12-17T06:40:24;45.95;;;17.08;;
76712;SDS011;65640;43.154;25.658;2022-12-17T06:43:08;78.45;;;25.77;;
76712;SDS011;65640;43.154;25.658;2022-12-17T06:45:52;61.03;;;21.65;;
76712;SDS011;65640;43.154;25.658;2022-12-17T06:48:36;45.53;;;22.30;;
76712;SDS011;65640;43.154;25.658;2022-12-17T06:51:20;32.53;;;19.90;;
76712;SDS011;65640;43.154;25.658;2022-12-17T06:54:04;33.35;;;18.83;;
76712;SDS011;65640;43.154;25.658;2022-12-17T06:56:48;52.88;;;29.50;;
76712;SDS011;65640;43.154;25.658;2022-12-17T06:59:32;58.75;;;21.38;;
76712;SDS011;65640;43.154;25.658;2022-12-17T07:02:16;59.60;;;21.42;;
76712;SDS011;65640;43.154;25.658;2022-12-17T07:05:01;34.78;;;19.52;;
76712;SDS011;65640;43.154;25.658;2022-12-17T07:07:45;11.95;;;8.40;;
76712;SDS011;65640;43.154;25.658;2022-12-17T07:10:29;9.75;;;7.47;;
76712;SDS011;65640;43.154;25.658;2022-12-17T07:13:13;11.98;;;8.43;;
76712;SDS011;65640;43.154;25.658;2022-12-17T07:15:57;15.57;;;9.60;;
76712;SDS011;65640;43.154;25.658;2022-12-17T07:18:40;14.20;;;9.27;;
76712;SDS011;65640;43.154;25.658;2022-12-17T07:21:25;16.95;;;10.95;;
76712;SDS011;65640;43.154;25.658;2022-12-17T07:24:09;19.60;;;13.25;;
76712;SDS011;65640;43.154;25.658;2022-12-17T07:26:53;22.92;;;15.13;;
76712;SDS011;65640;43.154;25.658;2022-12-17T07:29:37;18.73;;;12.95;;
76712;SDS011;65640;43.154;25.658;2022-12-17T07:32:21;12.98;;;9.45;;
76712;SDS011;65640;43.154;25.658;2022-12-17T07:35:05;19.25;;;11.27;;
76712;SDS011;65640;43.154;25.658;2022-12-17T07:37:56;16.23;;;10.25;;
76712;SDS011;65640;43.154;25.658;2022-12-17T07:40:41;15.15;;;10.00;;
76712;SDS011;65640;43.154;25.658;2022-12-17T07:43:25;20.67;;;11.55;;
76712;SDS011;65640;43.154;25.658;2022-12-17T07:46:09;15.80;;;11.45;;
76712;SDS011;65640;43.154;25.658;2022-12-17T07:48:53;16.52;;;11.38;;
76712;SDS011;65640;43.154;25.658;2022-12-17T07:51:37;23.45;;;12.57;;
76712;SDS011;65640;43.154;25.658;2022-12-17T07:54:20;17.60;;;11.23;;
76712;SDS011;65640;43.154;25.658;2022-12-17T07:57:04;10.98;;;9.25;;
76712;SDS011;65640;43.154;25.658;2022-12-17T07:59:48;15.52;;;10.48;;
76712;SDS011;65640;43.154;25.658;2022-12-17T08:02:32;12.65;;;9.60;;
76712;SDS011;65640;43.154;25.658;2022-12-17T08:05:16;10.93;;;8.85;;
76712;SDS011;65640;43.154;25.658;2022-12-17T08:08:07;13.15;;;10.15;;
76712;SDS011;65640;43.154;25.658;2022-12-17T08:10:52;10.32;;;9.20;;
76712;SDS011;65640;43.154;25.658;2022-12-17T08:13:36;13.23;;;10.00;;
76712;SDS011;65640;43.154;25.658;2022-12-17T08:16:20;10.65;;;9.13;;
76712;SDS011;65640;43.154;25.658;2022-12-17T08:19:04;11.75;;;9.23;;
76712;SDS011;65640;43.154;25.658;2022-12-17T08:21:48;11.18;;;9.35;;
76712;SDS011;65640;43.154;25.658;2022-12-17T08:24:32;12.48;;;10.60;;
76712;SDS011;65640;43.154;25.658;2022-12-17T08:27:16;13.52;;;11.20;;
76712;SDS011;65640;43.154;25.658;2022-12-17T08:30:00;16.92;;;11.90;;
76712;SDS011;65640;43.154;25.658;2022-12-17T08:32:44;16.35;;;13.82;;
76712;SDS011;65640;43.154;25.658;2022-12-17T08:35:28;14.40;;;10.43;;
76712;SDS011;65640;43.154;25.658;2022-12-17T08:38:12;12.70;;;10.55;;
76712;SDS011;65640;43.154;25.658;2022-12-17T08:40:58;17.65;;;14.65;;
76712;SDS011;65640;43.154;25.658;2022-12-17T08:43:42;13.82;;;11.88;;
76712;SDS011;65640;43.154;25.658;2022-12-17T08:46:26;12.55;;;9.27;;
76712;SDS011;65640;43.154;25.658;2022-12-17T08:49:15;7.60;;;6.80;;
76712;SDS011;65640;43.154;25.658;2022-12-17T08:51:59;40.90;;;19.88;;
76712;SDS011;65640;43.154;25.658;2022-12-17T08:54:43;15.73;;;11.38;;
76712;SDS011;65640;43.154;25.658;2022-12-17T08:57:27;20.05;;;13.82;;
76712;SDS011;65640;43.154;25.658;2022-12-17T09:00:11;16.00;;;11.18;;
76712;SDS011;65640;43.154;25.658;2022-12-17T09:02:59;14.18;;;8.38;;
76712;SDS011;65640;43.154;25.658;2022-12-17T09:05:44;17.38;;;9.27;;
76712;SDS011;65640;43.154;25.658;2022-12-17T09:08:28;13.77;;;9.98;;
76712;SDS011;65640;43.154;25.658;2022-12-17T09:11:12;15.63;;;10.27;;
76712;SDS011;65640;43.154;25.658;2022-12-17T09:13:56;14.07;;;9.60;;
76712;SDS011;65640;43.154;25.658;2022-12-17T09:16:40;18.13;;;12.07;;
76712;SDS011;65640;43.154;25.658;2022-12-17T09:19:24;12.93;;;9.82;;
76712;SDS011;65640;43.154;25.658;2022-12-17T09:22:08;19.92;;;13.07;;
76712;SDS011;65640;43.154;25.658;2022-12-17T09:24:52;20.13;;;10.85;;
76712;SDS011;65640;43.154;25.658;2022-12-17T09:27:36;18.98;;;10.90;;
76712;SDS011;65640;43.154;25.658;2022-12-17T09:30:19;16.75;;;10.23;;
76712;SDS011;65640;43.154;25.658;2022-12-17T09:33:03;21.42;;;12.48;;
76712;SDS011;65640;43.154;25.658;2022-12-17T09:35:48;16.85;;;10.68;;
76712;SDS011;65640;43.154;25.658;2022-12-17T09:38:32;15.68;;;10.05;;
76712;SDS011;65640;43.154;25.658;2022-12-17T09:41:26;16.23;;;10.77;;
76712;SDS011;65640;43.154;25.658;2022-12-17T09:49:51;19.17;;;11.20;;
76712;SDS011;65640;43.154;25.658;2022-12-17T09:52:35;18.98;;;11.40;;
76712;SDS011;65640;43.154;25.658;2022-12-17T09:55:27;15.35;;;10.20;;
76712;SDS011;65640;43.154;25.658;2022-12-17T09:58:19;14.02;;;9.68;;
76712;SDS011;65640;43.154;25.658;2022-12-17T10:01:08;17.40;;;11.90;;
76712;SDS011;65640;43.154;25.658;2022-12-17T10:04:16;16.30;;;10.38;;
76712;SDS011;65640;43.154;25.658;2022-12-17T10:07:07;20.17;;;11.25;;
76712;SDS011;65640;43.154;25.658;2022-12-17T10:09:55;15.00;;;9.80;;
76712;SDS011;65640;43.154;25.658;2022-12-17T10:12:42;15.00;;;9.40;;
76712;SDS011;65640;43.154;25.658;2022-12-17T10:15:26;19.38;;;10.80;;
76712;SDS011;65640;43.154;25.658;2022-12-17T10:18:10;16.35;;;10.63;;
76712;SDS011;65640;43.154;25.658;2022-12-17T10:20:57;16.70;;;11.15;;
76712;SDS011;65640;43.154;25.658;2022-12-17T10:23:43;16.85;;;10.20;;
76712;SDS011;65640;43.154;25.658;2022-12-17T10:26:28;10.65;;;8.25;;
76712;SDS011;65640;43.154;25.658;2022-12-17T10:29:16;19.50;;;10.38;;
76712;SDS011;65640;43.154;25.658;2022-12-17T10:32:10;12.82;;;9.48;;
76712;SDS011;65640;43.154;25.658;2022-12-17T10:35:18;15.30;;;9.07;;
76712;SDS011;65640;43.154;25.658;2022-12-17T10:38:17;12.25;;;9.18;;
76712;SDS011;65640;43.154;25.658;2022-12-17T10:41:04;12.32;;;9.77;;
76712;SDS011;65640;43.154;25.658;2022-12-17T10:44:17;13.73;;;9.32;;
76712;SDS011;65640;43.154;25.658;2022-12-17T10:47:09;17.17;;;10.95;;
76712;SDS011;65640;43.154;25.658;2022-12-17T10:49:58;14.82;;;10.20;;
76712;SDS011;65640;43.154;25.658;2022-12-17T10:52:44;16.42;;;9.85;;
76712;SDS011;65640;43.154;25.658;2022-12-17T10:55:29;15.10;;;10.20;;
76712;SDS011;65640;43.154;25.658;2022-12-17T10:58:17;14.52;;;9.38;;
76712;SDS011;65640;43.154;25.658;2022-12-17T11:01:04;11.80;;;9.27;;
76712;SDS011;65640;43.154;25.658;2022-12-17T11:03:52;12.88;;;9.15;;
76712;SDS011;65640;43.154;25.658;2022-12-17T11:06:45;11.85;;;9.38;;
76712;SDS011;65640;43.154;25.658;2022-12-17T11:12:49;14.00;;;9.48;;
76712;SDS011;65640;43.154;25.658;2022-12-17T11:21:24;14.57;;;9.38;;
76712;SDS011;65640;43.154;25.658;2022-12-17T11:24:20;16.38;;;11.13;;
76712;SDS011;65640;43.154;25.658;2022-12-17T11:27:08;17.25;;;11.38;;
76712;SDS011;65640;43.154;25.658;2022-12-17T11:29:58;13.88;;;10.82;;
76712;SDS011;65640;43.154;25.658;2022-12-17T11:35:40;12.95;;;9.40;;
76712;SDS011;65640;43.154;25.658;2022-12-17T11:38:38;14.40;;;9.70;;
76712;SDS011;65640;43.154;25.658;2022-12-17T11:47:32;11.55;;;9.25;;
76712;SDS011;65640;43.154;25.658;2022-12-17T11:50:34;23.35;;;12.85;;
76712;SDS011;65640;43.154;25.658;2022-12-17T11:56:35;14.38;;;10.98;;
76712;SDS011;65640;43.154;25.658;2022-12-17T12:08:10;17.63;;;11.57;;
76712;SDS011;65640;43.154;25.658;2022-12-17T12:20:46;18.63;;;11.20;;
76712;SDS011;65640;43.154;25.658;2022-12-17T12:30:11;18.27;;;12.40;;
76712;SDS011;65640;43.154;25.658;2022-12-17T12:33:04;15.95;;;11.70;;
76712;SDS011;65640;43.154;25.658;2022-12-17T12:36:01;22.75;;;14.27;;
76712;SDS011;65640;43.154;25.658;2022-12-17T12:38:50;26.38;;;17.75;;
76712;SDS011;65640;43.154;25.658;2022-12-17T12:41:53;23.83;;;15.95;;
76712;SDS011;65640;43.154;25.658;2022-12-17T12:44:53;24.35;;;17.77;;
76712;SDS011;65640;43.154;25.658;2022-12-17T12:51:23;18.65;;;14.00;;
76712;SDS011;65640;43.154;25.658;2022-12-17T12:54:20;20.70;;;14.75;;
76712;SDS011;65640;43.154;25.658;2022-12-17T12:57:22;17.98;;;12.48;;
76712;SDS011;65640;43.154;25.658;2022-12-17T13:00:19;30.02;;;18.05;;
76712;SDS011;65640;43.154;25.658;2022-12-17T13:06:02;20.70;;;15.68;;
76712;SDS011;65640;43.154;25.658;2022-12-17T13:08:27;25.13;;;16.75;;
76712;SDS011;65640;43.154;25.658;2022-12-17T13:10:52;26.08;;;19.02;;
76712;SDS011;65640;43.154;25.658;2022-12-17T13:13:28;25.98;;;17.45;;
76712;SDS011;65640;43.154;25.658;2022-12-17T13:15:55;19.45;;;14.20;;
76712;SDS011;65640;43.154;25.658;2022-12-17T13:18:33;25.00;;;15.15;;
76712;SDS011;65640;43.154;25.658;2022-12-17T13:21:02;22.15;;;15.27;;
76712;SDS011;65640;43.154;25.658;2022-12-17T13:23:32;21.75;;;13.43;;
76712;SDS011;65640;43.154;25.658;2022-12-17T13:26:11;18.52;;;13.55;;
76712;SDS011;65640;43.154;25.658;2022-12-17T13:28:39;16.48;;;12.65;;
76712;SDS011;65640;43.154;25.658;2022-12-17T13:31:19;16.13;;;12.50;;
76712;SDS011;65640;43.154;25.658;2022-12-17T13:42:02;30.80;;;18.88;;
76712;SDS011;65640;43.154;25.658;2022-12-17T13:44:29;36.88;;;19.30;;
76712;SDS011;65640;43.154;25.658;2022-12-17T13:47:04;20.13;;;13.40;;
76712;SDS011;65640;43.154;25.658;2022-12-17T13:49:30;21.30;;;12.75;;
76712;SDS011;65640;43.154;25.658;2022-12-17T13:52:03;23.38;;;14.82;;
76712;SDS011;65640;43.154;25.658;2022-12-17T13:54:41;21.42;;;13.55;;
76712;SDS011;65640;43.154;25.658;2022-12-17T13:57:12;19.10;;;12.25;;
76712;SDS011;65640;43.154;25.658;2022-12-17T14:04:49;16.55;;;11.23;;
76712;SDS011;65640;43.154;25.658;2022-12-17T14:07:16;17.00;;;13.68;;
76712;SDS011;65640;43.154;25.658;2022-12-17T14:09:41;92.50;;;42.70;;
76712;SDS011;65640;43.154;25.658;2022-12-17T14:12:11;33.03;;;19.70;;
76712;SDS011;65640;43.154;25.658;2022-12-17T14:15:01;26.23;;;16.73;;
76712;SDS011;65640;43.154;25.658;2022-12-17T14:17:41;22.27;;;15.13;;
76712;SDS011;65640;43.154;25.658;2022-12-17T14:20:19;54.22;;;28.35;;
76712;SDS011;65640;43.154;25.658;2022-12-17T14:22:54;106.03;;;48.38;;
76712;SDS011;65640;43.154;25.658;2022-12-17T14:25:25;25.23;;;16.42;;
76712;SDS011;65640;43.154;25.658;2022-12-17T14:27:55;46.50;;;28.15;;
76712;SDS011;65640;43.154;25.658;2022-12-17T14:30:30;27.27;;;19.13;;
76712;SDS011;65640;43.154;25.658;2022-12-17T14:33:02;31.20;;;22.92;;
76712;SDS011;65640;43.154;25.658;2022-12-17T14:35:29;34.00;;;22.52;;
76712;SDS011;65640;43.154;25.658;2022-12-17T14:37:58;28.77;;;19.85;;
76712;SDS011;65640;43.154;25.658;2022-12-17T14:40:23;31.95;;;22.15;;
76712;SDS011;65640;43.154;25.658;2022-12-17T14:45:20;45.20;;;29.42;;
76712;SDS011;65640;43.154;25.658;2022-12-17T14:47:55;35.22;;;25.05;;
76712;SDS011;65640;43.154;25.658;2022-12-17T14:50:30;38.28;;;28.63;;
76712;SDS011;65640;43.154;25.658;2022-12-17T14:52:58;30.33;;;21.52;;
76712;SDS011;65640;43.154;25.658;2022-12-17T15:00:40;57.40;;;33.53;;
76712;SDS011;65640;43.154;25.658;2022-12-17T15:03:17;42.60;;;29.13;;
76712;SDS011;65640;43.154;25.658;2022-12-17T15:05:52;31.25;;;21.50;;
76712;SDS011;65640;43.154;25.658;2022-12-17T15:08:22;33.85;;;20.35;;
76712;SDS011;65640;43.154;25.658;2022-12-17T15:10:48;51.25;;;27.77;;
76712;SDS011;65640;43.154;25.658;2022-12-17T15:13:14;33.42;;;21.02;;
76712;SDS011;65640;43.154;25.658;2022-12-17T15:15:39;26.30;;;18.05;;
76712;SDS011;65640;43.154;25.658;2022-12-17T15:18:05;29.10;;;20.05;;
76712;SDS011;65640;43.154;25.658;2022-12-17T15:20:30;36.60;;;25.20;;
76712;SDS011;65640;43.154;25.658;2022-12-17T15:22:56;40.35;;;26.63;;
76712;SDS011;65640;43.154;25.658;2022-12-17T15:25:21;45.22;;;27.75;;
76712;SDS011;65640;43.154;25.658;2022-12-17T15:27:47;42.70;;;26.75;;
76712;SDS011;65640;43.154;25.658;2022-12-17T15:30:13;36.58;;;21.40;;
76712;SDS011;65640;43.154;25.658;2022-12-17T15:32:43;43.78;;;28.38;;
76712;SDS011;65640;43.154;25.658;2022-12-17T15:35:09;45.65;;;27.70;;
76712;SDS011;65640;43.154;25.658;2022-12-17T15:37:35;39.90;;;23.15;;
76712;SDS011;65640;43.154;25.658;2022-12-17T15:40:01;37.95;;;23.42;;
76712;SDS011;65640;43.154;25.658;2022-12-17T15:45:11;51.33;;;29.92;;
76712;SDS011;65640;43.154;25.658;2022-12-17T15:47:37;51.83;;;28.33;;
76712;SDS011;65640;43.154;25.658;2022-12-17T15:50:03;55.08;;;31.33;;
76712;SDS011;65640;43.154;25.658;2022-12-17T15:52:28;58.47;;;32.90;;
76712;SDS011;65640;43.154;25.658;2022-12-17T15:54:54;65.00;;;38.80;;
76712;SDS011;65640;43.154;25.658;2022-12-17T15:57:19;50.33;;;31.98;;
76712;SDS011;65640;43.154;25.658;2022-12-17T15:59:45;91.47;;;48.33;;
76712;SDS011;65640;43.154;25.658;2022-12-17T16:02:10;21.02;;;14.90;;
76712;SDS011;65640;43.154;25.658;2022-12-17T16:04:36;18.25;;;12.07;;
76712;SDS011;65640;43.154;25.658;2022-12-17T16:07:02;22.38;;;12.60;;
76712;SDS011;65640;43.154;25.658;2022-12-17T16:09:28;15.45;;;10.93;;
76712;SDS011;65640;43.154;25.658;2022-12-17T16:11:53;20.25;;;14.05;;
76712;SDS011;65640;43.154;25.658;2022-12-17T16:14:19;12.05;;;10.65;;
76712;SDS011;65640;43.154;25.658;2022-12-17T16:16:45;15.15;;;10.05;;
76712;SDS011;65640;43.154;25.658;2022-12-17T16:19:11;12.65;;;10.48;;
76712;SDS011;65640;43.154;25.658;2022-12-17T16:21:36;16.17;;;11.23;;
76712;SDS011;65640;43.154;25.658;2022-12-17T16:24:01;18.58;;;12.88;;
76712;SDS011;65640;43.154;25.658;2022-12-17T16:26:27;16.92;;;11.80;;
76712;SDS011;65640;43.154;25.658;2022-12-17T16:28:52;26.42;;;15.93;;
76712;SDS011;65640;43.154;25.658;2022-12-17T16:31:18;34.00;;;19.98;;
76712;SDS011;65640;43.154;25.658;2022-12-17T16:33:44;31.58;;;16.77;;
76712;SDS011;65640;43.154;25.658;2022-12-17T16:36:12;31.50;;;18.05;;
76712;SDS011;65640;43.154;25.658;2022-12-17T16:38:46;27.23;;;16.85;;
76712;SDS011;65640;43.154;25.658;2022-12-17T16:41:15;25.60;;;16.50;;
76712;SDS011;65640;43.154;25.658;2022-12-17T16:43:41;23.67;;;17.00;;
76712;SDS011;65640;43.154;25.658;2022-12-17T16:46:49;21.80;;;14.52;;
76712;SDS011;65640;43.154;25.658;2022-12-17T16:51:29;15.25;;;11.80;;
76712;SDS011;65640;43.154;25.658;2022-12-17T16:53:56;15.43;;;10.60;;
76712;SDS011;65640;43.154;25.658;2022-12-17T16:56:22;17.40;;;12.25;;
76712;SDS011;65640;43.154;25.658;2022-12-17T16:58:51;16.92;;;10.80;;
76712;SDS011;65640;43.154;25.658;2022-12-17T17:01:21;23.10;;;13.90;;
76712;SDS011;65640;43.154;25.658;2022-12-17T17:03:48;21.38;;;12.43;;
76712;SDS011;65640;43.154;25.658;2022-12-17T17:06:15;27.25;;;14.95;;